Ncc Najd — HZAK — position and weather

sailwx.info

Track history (hours):
 
Tides and Currents Weather Stations Pressure Air Temp Water Temp Dewpoint Dewpoint Depression Visibility Wind Speed Wind Dir Waves Ship Positions

Ncc Najd

Last reported at 2016-May-24 21:33 UTC. Time now 2016-May-31 00:15 UTC.
Position N 22°29' E 119°53'.

Length 183 m; draft 10.7 m.

Type: Tanker. MMSI: 403579000.

Date/timePositionNaut miles runAvg speedWind from/ knotsBaromVisibWave heightAir tempDewpointWater temp
2016-May-24 21:33N 22°29' E 119°53'  
2016-May-20 12:25N 01°16' E 104°13'1213.7
2016-May-20 11:33N 01°15' E 104°02'1313.4
2016-May-20 10:33N 01°10' E 103°49'1313.2
2016-May-20 09:33N 01°03' E 103°38'8 8.4
2016-May-20 08:33N 01°11' E 103°37'4 4.4
2016-May-20 07:33N 01°12' E 103°41'1 1.1
2016-May-20 06:33N 01°13' E 103°42'4 1.3
2016-May-20 03:09N 01°16' E 103°44'0 0.0
2016-May-20 02:18N 01°16' E 103°44'0 0.0
2016-May-20 01:15N 01°16' E 103°44'0 0.0
2016-May-20 00:27N 01°16' E 103°44'0 0.0
2016-May-19 23:33N 01°16' E 103°44'0 0.0
2016-May-19 22:30N 01°16' E 103°44'0 0.0
2016-May-19 21:30N 01°16' E 103°44'0 0.0
2016-May-19 20:24N 01°16' E 103°44'0 0.0
2016-May-19 19:33N 01°16' E 103°44'0 0.0
2016-May-19 18:30N 01°16' E 103°44'0 0.0
2016-May-19 17:30N 01°16' E 103°44'0 0.0
2016-May-19 16:33N 01°16' E 103°44'0 0.0
2016-May-19 15:33N 01°16' E 103°44'0 0.0
2016-May-19 14:33N 01°16' E 103°44'0 0.0
2016-May-19 13:30N 01°16' E 103°44'0 0.0
2016-May-19 12:33N 01°16' E 103°44'0 0.0
2016-May-19 11:30N 01°16' E 103°44'0 0.0
2016-May-19 10:30N 01°16' E 103°44'2 1.9
2016-May-19 09:33N 01°15' E 103°45'5 4.2
2016-May-19 08:22N 01°11' E 103°42'0 0.1
2016-May-19 07:19N 01°11' E 103°42'0 0.1
2016-May-19 06:16N 01°11' E 103°42'0 0.0
2016-May-19 05:28N 01°11' E 103°42'0 0.0
2016-May-19 04:13N 01°11' E 103°42'0 0.0
2016-May-19 03:25N 01°11' E 103°42'0 0.0
2016-May-19 02:28N 01°11' E 103°42'0 0.0
2016-May-19 01:25N 01°11' E 103°42'0 0.0
2016-May-19 00:25N 01°11' E 103°42'2 1.8
2016-May-18 23:33N 01°10' E 103°44'5 4.7
2016-May-18 22:33N 01°12' E 103°48'0 0.0
2016-May-18 21:31N 01°12' E 103°48'0 0.0
2016-May-18 20:31N 01°12' E 103°48'0 0.0
2016-May-18 19:22N 01°12' E 103°48'0 0.0
2016-May-18 18:28N 01°12' E 103°48'0 0.0
2016-May-18 17:31N 01°12' E 103°48'0 0.0
2016-May-18 16:31N 01°12' E 103°48'0 0.0
2016-May-18 15:25N 01°12' E 103°48'0 0.0
2016-May-18 14:22N 01°12' E 103°48'0 0.0
2016-May-18 13:31N 01°12' E 103°48'0 0.0
2016-May-18 12:22N 01°12' E 103°48'0 0.0
2016-May-18 11:10N 01°12' E 103°48'0 0.0
2016-May-18 10:25N 01°12' E 103°48'0 0.0
2016-May-18 09:28N 01°12' E 103°48'0 0.0
2016-May-18 08:31N 01°12' E 103°48'0 0.0
2016-May-18 07:25N 01°12' E 103°48'0 0.0
2016-May-18 06:31N 01°12' E 103°48'1 0.6
2016-May-18 05:33N 01°12' E 103°48'6 6.2
2016-May-18 04:33N 01°14' E 103°42'3 3.0
2016-May-18 03:32N 01°11' E 103°41'0 0.0
2016-May-18 02:14N 01°11' E 103°41'0 0.0
2016-May-18 01:29N 01°11' E 103°41'0 0.1
2016-May-18 00:17N 01°11' E 103°41'0 0.1
2016-May-17 23:32N 01°11' E 103°41'0 0.0
2016-May-17 22:26N 01°11' E 103°41'0 0.0
2016-May-17 21:29N 01°11' E 103°41'0 0.1
2016-May-17 20:32N 01°11' E 103°41'0 0.0
2016-May-17 19:32N 01°11' E 103°41'0 0.0
2016-May-17 18:32N 01°11' E 103°41'0 0.0
2016-May-17 17:32N 01°11' E 103°41'0 0.1
2016-May-17 16:26N 01°11' E 103°41'0 0.1
2016-May-17 15:29N 01°11' E 103°41'2 1.7
2016-May-17 14:33N 01°12' E 103°41'3 0.3
2016-May-17 01:20N 01°16' E 103°41'0 0.0
2016-May-17 00:05N 01°16' E 103°41'0 0.0
2016-May-16 22:05N 01°16' E 103°41'0 0.0
2016-May-16 19:33N 01°16' E 103°41'3 3.2
2016-May-16 18:34N 01°13' E 103°41'0 0.1
2016-May-16 17:33N 01°13' E 103°41'0 0.0
2016-May-16 16:34N 01°13' E 103°41'0 0.1
2016-May-16 15:33N 01°13' E 103°41'0 0.0
2016-May-16 14:34N 01°13' E 103°41'1 0.8
2016-May-16 13:33N 01°12' E 103°40'5 4.7
2016-May-16 12:33N 01°12' E 103°36'6 6.4
2016-May-16 11:33N 01°09' E 103°30'6913.7
2016-May-16 06:32N 01°45' E 102°32'1515.1
2016-May-16 05:33N 01°52' E 102°18'  
Track history (hours):
 
Tides and Currents Weather Stations Pressure Air Temp Water Temp Dewpoint Dewpoint Depression Visibility Wind Speed Wind Dir Waves Ship Positions

Ncc Najd

Last reported at 2016-May-24 21:33 UTC. Time now 2016-May-31 00:15 UTC.
Position N 22°29' E 119°53'.

Length 183 m; draft 10.7 m.

Type: Tanker. MMSI: 403579000.

Date/timePositionNaut miles runAvg speedWind from/ knotsBaromVisibWave heightAir tempDewpointWater temp
2016-May-24 21:33N 22°29' E 119°53'  
2016-May-20 12:25N 01°16' E 104°13'1213.7
2016-May-20 11:33N 01°15' E 104°02'1313.4
2016-May-20 10:33N 01°10' E 103°49'1313.2
2016-May-20 09:33N 01°03' E 103°38'8 8.4
2016-May-20 08:33N 01°11' E 103°37'4 4.4
2016-May-20 07:33N 01°12' E 103°41'1 1.1
2016-May-20 06:33N 01°13' E 103°42'4 1.3
2016-May-20 03:09N 01°16' E 103°44'0 0.0
2016-May-20 02:18N 01°16' E 103°44'0 0.0
2016-May-20 01:15N 01°16' E 103°44'0 0.0
2016-May-20 00:27N 01°16' E 103°44'0 0.0
2016-May-19 23:33N 01°16' E 103°44'0 0.0
2016-May-19 22:30N 01°16' E 103°44'0 0.0
2016-May-19 21:30N 01°16' E 103°44'0 0.0
2016-May-19 20:24N 01°16' E 103°44'0 0.0
2016-May-19 19:33N 01°16' E 103°44'0 0.0
2016-May-19 18:30N 01°16' E 103°44'0 0.0
2016-May-19 17:30N 01°16' E 103°44'0 0.0
2016-May-19 16:33N 01°16' E 103°44'0 0.0
2016-May-19 15:33N 01°16' E 103°44'0 0.0
2016-May-19 14:33N 01°16' E 103°44'0 0.0
2016-May-19 13:30N 01°16' E 103°44'0 0.0
2016-May-19 12:33N 01°16' E 103°44'0 0.0
2016-May-19 11:30N 01°16' E 103°44'0 0.0
2016-May-19 10:30N 01°16' E 103°44'2 1.9
2016-May-19 09:33N 01°15' E 103°45'5 4.2
2016-May-19 08:22N 01°11' E 103°42'0 0.1
2016-May-19 07:19N 01°11' E 103°42'0 0.1
2016-May-19 06:16N 01°11' E 103°42'0 0.0
2016-May-19 05:28N 01°11' E 103°42'0 0.0
2016-May-19 04:13N 01°11' E 103°42'0 0.0
2016-May-19 03:25N 01°11' E 103°42'0 0.0
2016-May-19 02:28N 01°11' E 103°42'0 0.0
2016-May-19 01:25N 01°11' E 103°42'0 0.0
2016-May-19 00:25N 01°11' E 103°42'2 1.8
2016-May-18 23:33N 01°10' E 103°44'5 4.7
2016-May-18 22:33N 01°12' E 103°48'0 0.0
2016-May-18 21:31N 01°12' E 103°48'0 0.0
2016-May-18 20:31N 01°12' E 103°48'0 0.0
2016-May-18 19:22N 01°12' E 103°48'0 0.0
2016-May-18 18:28N 01°12' E 103°48'0 0.0
2016-May-18 17:31N 01°12' E 103°48'0 0.0
2016-May-18 16:31N 01°12' E 103°48'0 0.0
2016-May-18 15:25N 01°12' E 103°48'0 0.0
2016-May-18 14:22N 01°12' E 103°48'0 0.0
2016-May-18 13:31N 01°12' E 103°48'0 0.0
2016-May-18 12:22N 01°12' E 103°48'0 0.0
2016-May-18 11:10N 01°12' E 103°48'0 0.0
2016-May-18 10:25N 01°12' E 103°48'0 0.0
2016-May-18 09:28N 01°12' E 103°48'0 0.0
2016-May-18 08:31N 01°12' E 103°48'0 0.0
2016-May-18 07:25N 01°12' E 103°48'0 0.0
2016-May-18 06:31N 01°12' E 103°48'1 0.6
2016-May-18 05:33N 01°12' E 103°48'6 6.2
2016-May-18 04:33N 01°14' E 103°42'3 3.0
2016-May-18 03:32N 01°11' E 103°41'0 0.0
2016-May-18 02:14N 01°11' E 103°41'0 0.0
2016-May-18 01:29N 01°11' E 103°41'0 0.1
2016-May-18 00:17N 01°11' E 103°41'0 0.1
2016-May-17 23:32N 01°11' E 103°41'0 0.0
2016-May-17 22:26N 01°11' E 103°41'0 0.0
2016-May-17 21:29N 01°11' E 103°41'0 0.1
2016-May-17 20:32N 01°11' E 103°41'0 0.0
2016-May-17 19:32N 01°11' E 103°41'0 0.0
2016-May-17 18:32N 01°11' E 103°41'0 0.0
2016-May-17 17:32N 01°11' E 103°41'0 0.1
2016-May-17 16:26N 01°11' E 103°41'0 0.1
2016-May-17 15:29N 01°11' E 103°41'2 1.7
2016-May-17 14:33N 01°12' E 103°41'3 0.3
2016-May-17 01:20N 01°16' E 103°41'0 0.0
2016-May-17 00:05N 01°16' E 103°41'0 0.0
2016-May-16 22:05N 01°16' E 103°41'0 0.0
2016-May-16 19:33N 01°16' E 103°41'3 3.2
2016-May-16 18:34N 01°13' E 103°41'0 0.1
2016-May-16 17:33N 01°13' E 103°41'0 0.0
2016-May-16 16:34N 01°13' E 103°41'0 0.1
2016-May-16 15:33N 01°13' E 103°41'0 0.0
2016-May-16 14:34N 01°13' E 103°41'1 0.8
2016-May-16 13:33N 01°12' E 103°40'5 4.7
2016-May-16 12:33N 01°12' E 103°36'6 6.4
2016-May-16 11:33N 01°09' E 103°30'6913.7
2016-May-16 06:32N 01°45' E 102°32'1515.1
2016-May-16 05:33N 01°52' E 102°18'  

Dump ship's entire track history